KLXY

Details ICAO KLXY
Name MEXIA LIMESTONE CO
Region United States
Timezone America/Chicago (UTC-5.0)
Plans Departing 1
Arriving 3
Stats Elevation 544 ft / 166 m (AMSL)
Location 31.639823° -96.514719°
Runways 1
Magnetic Variation 3.084° E
Sunrise 2018-05-21 11:27:19 UTC / 2018-05-21 06:27:19 Local
Sunset 2018-05-22 01:20:52 UTC / 2018-05-21 20:20:52 Local
Advertisement - Login to hide

Runways

ID Width Length Bearing (true) Bearing (mag) Surface Threshold Offset Overrun Length
18 60 ft / 18 m 4,015 ft / 1,224 m 189.23° 186.15° Asphalt 0 ft / 0 m 0 ft / 0 m
36 60 ft / 18 m 4,015 ft / 1,224 m 9.23° 6.15° Asphalt 0 ft / 0 m 0 ft / 0 m

Map

Weather


0- 5 10 15 20 25 30 35+ Temperature / ° C

Clouds and Precipitation
Forecast for 2018-05-21 18:00 UTC. Updated 6 hours ago

Ground ~20,000 ft ~40,000 ft Winds

METAR

KLXY 212255Z AUTO 08004KT 10SM CLR 27/21 A2996 RMK AO2 T02710206

TAF

Not found

Frequencies

Unicom 122.80 MHz CTAF/UNICOM
Approach 135.20 MHz WACO APP/DEP
Warning: Do not use this data for real-world aviation or navigation. No guarantee of current accuracy is given.